sensor_id;sensor_type;location;lat;lon;timestamp;P1;durP1;ratioP1;P2;durP2;ratioP2
12469;SDS011;36499;46.484;13.832;2024-03-17T00:01:52;4.50;;;2.40;;
12469;SDS011;36499;46.484;13.832;2024-03-17T00:04:19;4.77;;;3.07;;
12469;SDS011;36499;46.484;13.832;2024-03-17T00:06:45;5.23;;;2.80;;
12469;SDS011;36499;46.484;13.832;2024-03-17T00:09:12;3.83;;;2.57;;
12469;SDS011;36499;46.484;13.832;2024-03-17T00:11:38;3.23;;;2.70;;
12469;SDS011;36499;46.484;13.832;2024-03-17T00:14:05;5.20;;;2.80;;
12469;SDS011;36499;46.484;13.832;2024-03-17T00:16:30;6.10;;;2.80;;
12469;SDS011;36499;46.484;13.832;2024-03-17T00:18:57;3.87;;;3.27;;
12469;SDS011;36499;46.484;13.832;2024-03-17T00:21:23;3.83;;;2.90;;
12469;SDS011;36499;46.484;13.832;2024-03-17T00:23:51;3.03;;;2.40;;
12469;SDS011;36499;46.484;13.832;2024-03-17T00:26:16;4.83;;;2.90;;
12469;SDS011;36499;46.484;13.832;2024-03-17T00:28:44;5.07;;;3.03;;
12469;SDS011;36499;46.484;13.832;2024-03-17T00:31:13;3.47;;;2.50;;
12469;SDS011;36499;46.484;13.832;2024-03-17T00:33:40;4.63;;;2.37;;
12469;SDS011;36499;46.484;13.832;2024-03-17T00:36:06;6.67;;;2.30;;
12469;SDS011;36499;46.484;13.832;2024-03-17T00:38:33;3.40;;;1.90;;
12469;SDS011;36499;46.484;13.832;2024-03-17T00:40:59;2.93;;;2.23;;
12469;SDS011;36499;46.484;13.832;2024-03-17T00:43:28;3.73;;;2.30;;
12469;SDS011;36499;46.484;13.832;2024-03-17T00:45:54;2.57;;;1.97;;
12469;SDS011;36499;46.484;13.832;2024-03-17T00:48:20;4.00;;;2.47;;
12469;SDS011;36499;46.484;13.832;2024-03-17T00:50:46;3.87;;;2.77;;
12469;SDS011;36499;46.484;13.832;2024-03-17T00:53:21;4.83;;;3.33;;
12469;SDS011;36499;46.484;13.832;2024-03-17T00:55:53;3.50;;;2.80;;
12469;SDS011;36499;46.484;13.832;2024-03-17T00:58:25;3.20;;;2.40;;
12469;SDS011;36499;46.484;13.832;2024-03-17T01:00:50;4.80;;;2.60;;
12469;SDS011;36499;46.484;13.832;2024-03-17T01:03:17;4.63;;;2.47;;
12469;SDS011;36499;46.484;13.832;2024-03-17T01:05:43;2.23;;;2.03;;
12469;SDS011;36499;46.484;13.832;2024-03-17T01:08:13;2.03;;;1.83;;
12469;SDS011;36499;46.484;13.832;2024-03-17T01:10:42;3.10;;;2.40;;
12469;SDS011;36499;46.484;13.832;2024-03-17T01:13:10;3.87;;;2.43;;
12469;SDS011;36499;46.484;13.832;2024-03-17T01:15:36;2.93;;;2.30;;
12469;SDS011;36499;46.484;13.832;2024-03-17T01:18:04;3.33;;;2.70;;
12469;SDS011;36499;46.484;13.832;2024-03-17T01:20:31;3.40;;;2.37;;
12469;SDS011;36499;46.484;13.832;2024-03-17T01:22:58;4.90;;;2.50;;
12469;SDS011;36499;46.484;13.832;2024-03-17T01:25:24;2.20;;;1.93;;
12469;SDS011;36499;46.484;13.832;2024-03-17T01:27:52;2.63;;;2.10;;
12469;SDS011;36499;46.484;13.832;2024-03-17T01:30:17;3.20;;;2.07;;
12469;SDS011;36499;46.484;13.832;2024-03-17T01:32:45;4.83;;;2.83;;
12469;SDS011;36499;46.484;13.832;2024-03-17T01:35:11;4.17;;;3.20;;
12469;SDS011;36499;46.484;13.832;2024-03-17T01:37:38;5.70;;;3.40;;
12469;SDS011;36499;46.484;13.832;2024-03-17T01:40:04;4.47;;;3.10;;
12469;SDS011;36499;46.484;13.832;2024-03-17T01:42:33;4.77;;;3.27;;
12469;SDS011;36499;46.484;13.832;2024-03-17T01:44:59;5.53;;;3.20;;
12469;SDS011;36499;46.484;13.832;2024-03-17T01:47:25;4.20;;;2.70;;
12469;SDS011;36499;46.484;13.832;2024-03-17T01:49:51;2.90;;;2.60;;
12469;SDS011;36499;46.484;13.832;2024-03-17T01:52:19;7.93;;;2.80;;
12469;SDS011;36499;46.484;13.832;2024-03-17T01:54:46;3.67;;;2.50;;
12469;SDS011;36499;46.484;13.832;2024-03-17T01:57:13;3.27;;;2.37;;
12469;SDS011;36499;46.484;13.832;2024-03-17T01:59:39;3.47;;;2.73;;
12469;SDS011;36499;46.484;13.832;2024-03-17T02:02:06;4.43;;;3.50;;
12469;SDS011;36499;46.484;13.832;2024-03-17T02:04:32;3.97;;;3.17;;
12469;SDS011;36499;46.484;13.832;2024-03-17T02:06:59;4.23;;;2.57;;
12469;SDS011;36499;46.484;13.832;2024-03-17T02:09:25;4.13;;;2.77;;
12469;SDS011;36499;46.484;13.832;2024-03-17T02:11:52;2.80;;;2.47;;
12469;SDS011;36499;46.484;13.832;2024-03-17T02:14:18;5.03;;;2.60;;
12469;SDS011;36499;46.484;13.832;2024-03-17T02:16:46;2.40;;;1.87;;
12469;SDS011;36499;46.484;13.832;2024-03-17T02:19:12;2.33;;;2.13;;
12469;SDS011;36499;46.484;13.832;2024-03-17T02:21:38;3.77;;;2.40;;
12469;SDS011;36499;46.484;13.832;2024-03-17T02:24:04;2.57;;;2.27;;
12469;SDS011;36499;46.484;13.832;2024-03-17T02:26:31;4.37;;;2.30;;
12469;SDS011;36499;46.484;13.832;2024-03-17T02:28:56;5.27;;;2.30;;
12469;SDS011;36499;46.484;13.832;2024-03-17T02:31:23;2.83;;;1.90;;
12469;SDS011;36499;46.484;13.832;2024-03-17T02:33:48;3.37;;;2.23;;
12469;SDS011;36499;46.484;13.832;2024-03-17T02:36:15;3.93;;;2.50;;
12469;SDS011;36499;46.484;13.832;2024-03-17T02:38:42;4.37;;;2.33;;
12469;SDS011;36499;46.484;13.832;2024-03-17T02:41:27;3.13;;;2.57;;
12469;SDS011;36499;46.484;13.832;2024-03-17T02:43:54;3.53;;;2.53;;
12469;SDS011;36499;46.484;13.832;2024-03-17T02:46:21;3.70;;;2.40;;
12469;SDS011;36499;46.484;13.832;2024-03-17T02:48:50;3.17;;;2.37;;
12469;SDS011;36499;46.484;13.832;2024-03-17T02:51:18;3.13;;;2.30;;
12469;SDS011;36499;46.484;13.832;2024-03-17T02:53:46;5.13;;;2.43;;
12469;SDS011;36499;46.484;13.832;2024-03-17T02:56:14;2.60;;;2.17;;
12469;SDS011;36499;46.484;13.832;2024-03-17T02:58:42;2.90;;;2.50;;
12469;SDS011;36499;46.484;13.832;2024-03-17T03:01:09;4.43;;;2.30;;
12469;SDS011;36499;46.484;13.832;2024-03-17T03:03:36;2.77;;;2.17;;
12469;SDS011;36499;46.484;13.832;2024-03-17T03:06:03;3.40;;;2.50;;
12469;SDS011;36499;46.484;13.832;2024-03-17T03:08:34;3.70;;;2.40;;
12469;SDS011;36499;46.484;13.832;2024-03-17T03:11:03;2.70;;;2.07;;
12469;SDS011;36499;46.484;13.832;2024-03-17T03:13:31;2.67;;;2.10;;
12469;SDS011;36499;46.484;13.832;2024-03-17T03:15:58;2.80;;;2.00;;
12469;SDS011;36499;46.484;13.832;2024-03-17T03:18:25;2.73;;;1.97;;
12469;SDS011;36499;46.484;13.832;2024-03-17T03:20:51;2.47;;;1.90;;
12469;SDS011;36499;46.484;13.832;2024-03-17T03:23:18;3.37;;;2.50;;
12469;SDS011;36499;46.484;13.832;2024-03-17T03:25:46;2.53;;;2.33;;
12469;SDS011;36499;46.484;13.832;2024-03-17T03:28:12;4.10;;;2.30;;
12469;SDS011;36499;46.484;13.832;2024-03-17T03:30:39;3.33;;;2.50;;
12469;SDS011;36499;46.484;13.832;2024-03-17T03:33:06;3.70;;;2.10;;
12469;SDS011;36499;46.484;13.832;2024-03-17T03:35:33;2.60;;;2.30;;
12469;SDS011;36499;46.484;13.832;2024-03-17T03:37:59;2.50;;;2.30;;
12469;SDS011;36499;46.484;13.832;2024-03-17T03:40:27;2.33;;;2.13;;
12469;SDS011;36499;46.484;13.832;2024-03-17T03:42:54;3.20;;;2.00;;
12469;SDS011;36499;46.484;13.832;2024-03-17T03:45:21;3.27;;;2.23;;
12469;SDS011;36499;46.484;13.832;2024-03-17T03:47:49;3.00;;;2.43;;
12469;SDS011;36499;46.484;13.832;2024-03-17T03:50:17;2.30;;;2.10;;
12469;SDS011;36499;46.484;13.832;2024-03-17T03:52:45;2.73;;;1.83;;
12469;SDS011;36499;46.484;13.832;2024-03-17T03:55:12;5.43;;;2.17;;
12469;SDS011;36499;46.484;13.832;2024-03-17T03:57:42;4.27;;;1.90;;
12469;SDS011;36499;46.484;13.832;2024-03-17T04:00:11;2.50;;;1.70;;
12469;SDS011;36499;46.484;13.832;2024-03-17T04:02:38;2.00;;;1.70;;
12469;SDS011;36499;46.484;13.832;2024-03-17T04:05:05;4.23;;;2.23;;
12469;SDS011;36499;46.484;13.832;2024-03-17T04:07:32;3.63;;;2.13;;
12469;SDS011;36499;46.484;13.832;2024-03-17T04:09:59;2.23;;;1.67;;
12469;SDS011;36499;46.484;13.832;2024-03-17T04:12:26;1.90;;;1.63;;
12469;SDS011;36499;46.484;13.832;2024-03-17T04:14:56;1.90;;;1.70;;
12469;SDS011;36499;46.484;13.832;2024-03-17T04:17:23;2.20;;;1.73;;
12469;SDS011;36499;46.484;13.832;2024-03-17T04:19:50;2.97;;;1.90;;
12469;SDS011;36499;46.484;13.832;2024-03-17T04:22:18;3.13;;;1.53;;
12469;SDS011;36499;46.484;13.832;2024-03-17T04:24:45;2.70;;;2.30;;
12469;SDS011;36499;46.484;13.832;2024-03-17T04:27:13;7.80;;;2.83;;
12469;SDS011;36499;46.484;13.832;2024-03-17T04:29:39;4.53;;;2.03;;
12469;SDS011;36499;46.484;13.832;2024-03-17T04:32:06;2.07;;;1.87;;
12469;SDS011;36499;46.484;13.832;2024-03-17T04:34:33;2.63;;;2.20;;
12469;SDS011;36499;46.484;13.832;2024-03-17T04:36:59;4.00;;;2.90;;
12469;SDS011;36499;46.484;13.832;2024-03-17T04:39:26;3.43;;;2.40;;
12469;SDS011;36499;46.484;13.832;2024-03-17T04:41:53;4.13;;;3.07;;
12469;SDS011;36499;46.484;13.832;2024-03-17T04:44:19;3.73;;;2.50;;
12469;SDS011;36499;46.484;13.832;2024-03-17T04:46:46;4.60;;;3.07;;
12469;SDS011;36499;46.484;13.832;2024-03-17T04:49:12;2.23;;;1.73;;
12469;SDS011;36499;46.484;13.832;2024-03-17T04:51:39;5.00;;;4.17;;
12469;SDS011;36499;46.484;13.832;2024-03-17T04:54:06;3.87;;;2.83;;
12469;SDS011;36499;46.484;13.832;2024-03-17T04:56:33;3.37;;;2.30;;
12469;SDS011;36499;46.484;13.832;2024-03-17T04:58:59;2.17;;;1.87;;
12469;SDS011;36499;46.484;13.832;2024-03-17T05:01:26;11.97;;;8.20;;
12469;SDS011;36499;46.484;13.832;2024-03-17T05:03:52;4.47;;;3.57;;
12469;SDS011;36499;46.484;13.832;2024-03-17T05:06:19;11.60;;;8.57;;
12469;SDS011;36499;46.484;13.832;2024-03-17T05:08:46;12.13;;;7.10;;
12469;SDS011;36499;46.484;13.832;2024-03-17T05:11:13;8.63;;;5.70;;
12469;SDS011;36499;46.484;13.832;2024-03-17T05:13:41;15.03;;;9.17;;
12469;SDS011;36499;46.484;13.832;2024-03-17T05:16:07;10.70;;;7.63;;
12469;SDS011;36499;46.484;13.832;2024-03-17T05:18:34;2.60;;;2.20;;
12469;SDS011;36499;46.484;13.832;2024-03-17T05:21:04;8.80;;;4.07;;
12469;SDS011;36499;46.484;13.832;2024-03-17T05:23:33;2.10;;;1.60;;
12469;SDS011;36499;46.484;13.832;2024-03-17T05:26:01;2.60;;;1.70;;
12469;SDS011;36499;46.484;13.832;2024-03-17T05:28:29;3.67;;;2.77;;
12469;SDS011;36499;46.484;13.832;2024-03-17T05:30:57;6.77;;;4.53;;
12469;SDS011;36499;46.484;13.832;2024-03-17T05:33:24;6.30;;;2.30;;
12469;SDS011;36499;46.484;13.832;2024-03-17T05:35:55;3.33;;;2.37;;
12469;SDS011;36499;46.484;13.832;2024-03-17T05:38:26;3.73;;;2.27;;
12469;SDS011;36499;46.484;13.832;2024-03-17T05:40:57;2.60;;;2.10;;
12469;SDS011;36499;46.484;13.832;2024-03-17T05:43:26;2.77;;;1.50;;
12469;SDS011;36499;46.484;13.832;2024-03-17T05:45:56;3.53;;;1.70;;
12469;SDS011;36499;46.484;13.832;2024-03-17T05:48:24;2.57;;;2.07;;
12469;SDS011;36499;46.484;13.832;2024-03-17T05:50:50;2.10;;;1.77;;
12469;SDS011;36499;46.484;13.832;2024-03-17T05:53:17;2.30;;;2.10;;
12469;SDS011;36499;46.484;13.832;2024-03-17T05:55:44;2.10;;;1.90;;
12469;SDS011;36499;46.484;13.832;2024-03-17T05:58:11;3.53;;;2.00;;
12469;SDS011;36499;46.484;13.832;2024-03-17T06:00:40;3.27;;;2.30;;
12469;SDS011;36499;46.484;13.832;2024-03-17T06:03:06;3.43;;;2.30;;
12469;SDS011;36499;46.484;13.832;2024-03-17T06:05:34;4.07;;;2.87;;
12469;SDS011;36499;46.484;13.832;2024-03-17T06:08:05;4.40;;;2.60;;
12469;SDS011;36499;46.484;13.832;2024-03-17T06:10:34;4.70;;;2.30;;
12469;SDS011;36499;46.484;13.832;2024-03-17T06:13:04;3.57;;;2.40;;
12469;SDS011;36499;46.484;13.832;2024-03-17T06:15:31;2.70;;;2.10;;
12469;SDS011;36499;46.484;13.832;2024-03-17T06:17:58;4.30;;;2.10;;
12469;SDS011;36499;46.484;13.832;2024-03-17T06:20:27;3.73;;;2.20;;
12469;SDS011;36499;46.484;13.832;2024-03-17T06:22:53;2.60;;;1.90;;
12469;SDS011;36499;46.484;13.832;2024-03-17T06:25:22;2.00;;;1.77;;
12469;SDS011;36499;46.484;13.832;2024-03-17T06:27:49;5.93;;;4.43;;
12469;SDS011;36499;46.484;13.832;2024-03-17T06:30:16;6.37;;;3.27;;
12469;SDS011;36499;46.484;13.832;2024-03-17T06:32:43;3.97;;;2.97;;
12469;SDS011;36499;46.484;13.832;2024-03-17T06:35:11;3.20;;;2.70;;
12469;SDS011;36499;46.484;13.832;2024-03-17T06:37:40;3.37;;;2.60;;
12469;SDS011;36499;46.484;13.832;2024-03-17T06:40:09;5.33;;;1.90;;
12469;SDS011;36499;46.484;13.832;2024-03-17T06:42:40;3.30;;;2.20;;
12469;SDS011;36499;46.484;13.832;2024-03-17T06:45:07;6.70;;;1.80;;
12469;SDS011;36499;46.484;13.832;2024-03-17T06:47:37;2.67;;;2.00;;
12469;SDS011;36499;46.484;13.832;2024-03-17T06:50:05;1.93;;;1.60;;
12469;SDS011;36499;46.484;13.832;2024-03-17T06:52:35;1.90;;;1.70;;
12469;SDS011;36499;46.484;13.832;2024-03-17T06:55:01;3.43;;;1.97;;
12469;SDS011;36499;46.484;13.832;2024-03-17T06:57:28;2.63;;;1.60;;
12469;SDS011;36499;46.484;13.832;2024-03-17T06:59:55;1.93;;;1.70;;
12469;SDS011;36499;46.484;13.832;2024-03-17T07:02:21;4.07;;;2.03;;
12469;SDS011;36499;46.484;13.832;2024-03-17T07:04:48;3.97;;;2.00;;
12469;SDS011;36499;46.484;13.832;2024-03-17T07:07:14;2.10;;;1.90;;
12469;SDS011;36499;46.484;13.832;2024-03-17T07:09:41;4.47;;;2.30;;
12469;SDS011;36499;46.484;13.832;2024-03-17T07:12:08;3.57;;;2.07;;
12469;SDS011;36499;46.484;13.832;2024-03-17T07:14:36;2.10;;;1.80;;
12469;SDS011;36499;46.484;13.832;2024-03-17T07:17:03;7.13;;;5.83;;
12469;SDS011;36499;46.484;13.832;2024-03-17T07:19:30;4.77;;;2.40;;
12469;SDS011;36499;46.484;13.832;2024-03-17T07:21:57;5.40;;;3.93;;
12469;SDS011;36499;46.484;13.832;2024-03-17T07:24:24;8.77;;;5.40;;
12469;SDS011;36499;46.484;13.832;2024-03-17T07:26:50;8.87;;;5.17;;
12469;SDS011;36499;46.484;13.832;2024-03-17T07:29:17;5.23;;;4.03;;
12469;SDS011;36499;46.484;13.832;2024-03-17T07:31:45;6.33;;;4.30;;
12469;SDS011;36499;46.484;13.832;2024-03-17T07:34:11;8.73;;;5.10;;
12469;SDS011;36499;46.484;13.832;2024-03-17T07:36:38;7.83;;;6.37;;
12469;SDS011;36499;46.484;13.832;2024-03-17T07:39:05;8.57;;;5.53;;
12469;SDS011;36499;46.484;13.832;2024-03-17T07:41:32;2.30;;;1.47;;
12469;SDS011;36499;46.484;13.832;2024-03-17T07:43:58;2.93;;;2.07;;
12469;SDS011;36499;46.484;13.832;2024-03-17T07:46:25;4.47;;;1.97;;
12469;SDS011;36499;46.484;13.832;2024-03-17T07:48:52;4.77;;;2.90;;
12469;SDS011;36499;46.484;13.832;2024-03-17T07:51:18;7.13;;;4.70;;
12469;SDS011;36499;46.484;13.832;2024-03-17T07:53:46;41.50;;;17.90;;
12469;SDS011;36499;46.484;13.832;2024-03-17T07:56:14;42.33;;;21.40;;
12469;SDS011;36499;46.484;13.832;2024-03-17T07:58:43;17.57;;;10.07;;
12469;SDS011;36499;46.484;13.832;2024-03-17T08:01:11;19.13;;;12.57;;
12469;SDS011;36499;46.484;13.832;2024-03-17T08:03:39;2.83;;;2.17;;
12469;SDS011;36499;46.484;13.832;2024-03-17T08:06:09;2.50;;;1.00;;
12469;SDS011;36499;46.484;13.832;2024-03-17T08:08:37;1.10;;;1.00;;
12469;SDS011;36499;46.484;13.832;2024-03-17T08:11:04;1.30;;;1.20;;
12469;SDS011;36499;46.484;13.832;2024-03-17T08:13:31;3.23;;;1.10;;
12469;SDS011;36499;46.484;13.832;2024-03-17T08:16:00;1.17;;;1.07;;
12469;SDS011;36499;46.484;13.832;2024-03-17T08:18:43;1.40;;;1.07;;
12469;SDS011;36499;46.484;13.832;2024-03-17T08:21:09;1.03;;;0.90;;
12469;SDS011;36499;46.484;13.832;2024-03-17T08:23:36;1.10;;;0.90;;
12469;SDS011;36499;46.484;13.832;2024-03-17T08:26:06;1.30;;;1.10;;
12469;SDS011;36499;46.484;13.832;2024-03-17T08:28:33;1.53;;;1.20;;
12469;SDS011;36499;46.484;13.832;2024-03-17T08:31:03;7.97;;;2.97;;
12469;SDS011;36499;46.484;13.832;2024-03-17T08:33:30;2.23;;;1.40;;
12469;SDS011;36499;46.484;13.832;2024-03-17T08:36:02;5.30;;;2.70;;
12469;SDS011;36499;46.484;13.832;2024-03-17T08:38:31;2.80;;;1.60;;
12469;SDS011;36499;46.484;13.832;2024-03-17T08:41:02;5.83;;;2.07;;
12469;SDS011;36499;46.484;13.832;2024-03-17T08:43:30;0.97;;;0.90;;
12469;SDS011;36499;46.484;13.832;2024-03-17T08:46:06;16.27;;;3.37;;
12469;SDS011;36499;46.484;13.832;2024-03-17T08:48:34;1.60;;;1.10;;
12469;SDS011;36499;46.484;13.832;2024-03-17T08:51:03;3.20;;;1.50;;
12469;SDS011;36499;46.484;13.832;2024-03-17T08:53:31;1.83;;;1.60;;
12469;SDS011;36499;46.484;13.832;2024-03-17T08:55:58;3.20;;;1.30;;
12469;SDS011;36499;46.484;13.832;2024-03-17T08:58:25;4.70;;;1.20;;
12469;SDS011;36499;46.484;13.832;2024-03-17T09:00:53;2.13;;;1.00;;
12469;SDS011;36499;46.484;13.832;2024-03-17T09:03:21;0.70;;;0.70;;
12469;SDS011;36499;46.484;13.832;2024-03-17T09:05:48;1.10;;;1.00;;
12469;SDS011;36499;46.484;13.832;2024-03-17T09:08:18;0.90;;;0.87;;
12469;SDS011;36499;46.484;13.832;2024-03-17T09:10:47;1.20;;;1.10;;
12469;SDS011;36499;46.484;13.832;2024-03-17T09:13:18;1.10;;;1.00;;
12469;SDS011;36499;46.484;13.832;2024-03-17T09:16:00;2.40;;;1.00;;
12469;SDS011;36499;46.484;13.832;2024-03-17T09:18:27;0.90;;;0.90;;
12469;SDS011;36499;46.484;13.832;2024-03-17T09:20:58;2.40;;;1.30;;
12469;SDS011;36499;46.484;13.832;2024-03-17T09:23:25;1.20;;;1.10;;
12469;SDS011;36499;46.484;13.832;2024-03-17T09:28:27;1.10;;;1.00;;
12469;SDS011;36499;46.484;13.832;2024-03-17T09:30:55;1.63;;;1.00;;
12469;SDS011;36499;46.484;13.832;2024-03-17T09:33:23;2.00;;;0.83;;
12469;SDS011;36499;46.484;13.832;2024-03-17T09:38:23;1.20;;;1.10;;
12469;SDS011;36499;46.484;13.832;2024-03-17T09:40:50;1.00;;;0.90;;
12469;SDS011;36499;46.484;13.832;2024-03-17T09:43:18;1.37;;;0.97;;
12469;SDS011;36499;46.484;13.832;2024-03-17T09:45:46;0.90;;;0.90;;
12469;SDS011;36499;46.484;13.832;2024-03-17T09:48:19;1.43;;;0.90;;
12469;SDS011;36499;46.484;13.832;2024-03-17T09:50:52;1.60;;;0.90;;
12469;SDS011;36499;46.484;13.832;2024-03-17T09:53:24;1.20;;;1.10;;
12469;SDS011;36499;46.484;13.832;2024-03-17T09:55:57;1.47;;;1.10;;
12469;SDS011;36499;46.484;13.832;2024-03-17T09:58:36;1.50;;;1.00;;
12469;SDS011;36499;46.484;13.832;2024-03-17T10:01:02;0.83;;;0.83;;
12469;SDS011;36499;46.484;13.832;2024-03-17T10:06:16;3.60;;;1.23;;
12469;SDS011;36499;46.484;13.832;2024-03-17T10:11:21;1.20;;;1.10;;
12469;SDS011;36499;46.484;13.832;2024-03-17T10:14:02;1.20;;;1.03;;
12469;SDS011;36499;46.484;13.832;2024-03-17T10:16:29;1.20;;;1.10;;
12469;SDS011;36499;46.484;13.832;2024-03-17T10:19:09;2.53;;;1.10;;
12469;SDS011;36499;46.484;13.832;2024-03-17T10:21:38;1.13;;;1.03;;
12469;SDS011;36499;46.484;13.832;2024-03-17T10:24:06;0.90;;;0.90;;
12469;SDS011;36499;46.484;13.832;2024-03-17T10:26:55;1.20;;;1.10;;
12469;SDS011;36499;46.484;13.832;2024-03-17T10:29:27;1.30;;;1.20;;
12469;SDS011;36499;46.484;13.832;2024-03-17T10:32:14;1.20;;;1.10;;
12469;SDS011;36499;46.484;13.832;2024-03-17T10:34:42;2.10;;;1.20;;
12469;SDS011;36499;46.484;13.832;2024-03-17T10:37:16;1.57;;;1.30;;
12469;SDS011;36499;46.484;13.832;2024-03-17T10:39:45;3.30;;;1.30;;
12469;SDS011;36499;46.484;13.832;2024-03-17T10:42:13;1.80;;;1.40;;
12469;SDS011;36499;46.484;13.832;2024-03-17T10:44:40;1.40;;;1.20;;
12469;SDS011;36499;46.484;13.832;2024-03-17T10:47:14;2.90;;;1.80;;
12469;SDS011;36499;46.484;13.832;2024-03-17T10:49:47;2.67;;;1.50;;
12469;SDS011;36499;46.484;13.832;2024-03-17T10:52:17;1.63;;;1.37;;
12469;SDS011;36499;46.484;13.832;2024-03-17T10:54:48;2.10;;;1.50;;
12469;SDS011;36499;46.484;13.832;2024-03-17T10:59:47;1.80;;;1.40;;
12469;SDS011;36499;46.484;13.832;2024-03-17T11:04:50;1.27;;;1.00;;
12469;SDS011;36499;46.484;13.832;2024-03-17T11:07:18;1.20;;;1.10;;
12469;SDS011;36499;46.484;13.832;2024-03-17T11:09:46;1.50;;;1.30;;
12469;SDS011;36499;46.484;13.832;2024-03-17T11:17:50;2.07;;;1.30;;
12469;SDS011;36499;46.484;13.832;2024-03-17T11:20:26;1.40;;;1.30;;
12469;SDS011;36499;46.484;13.832;2024-03-17T11:22:55;4.13;;;3.03;;
12469;SDS011;36499;46.484;13.832;2024-03-17T11:38:53;1.90;;;1.67;;
12469;SDS011;36499;46.484;13.832;2024-03-17T11:46:53;2.70;;;1.30;;
12469;SDS011;36499;46.484;13.832;2024-03-17T11:49:21;1.20;;;1.10;;
12469;SDS011;36499;46.484;13.832;2024-03-17T11:52:09;1.57;;;1.30;;
12469;SDS011;36499;46.484;13.832;2024-03-17T11:54:37;1.67;;;1.30;;
12469;SDS011;36499;46.484;13.832;2024-03-17T11:57:11;1.63;;;1.30;;
12469;SDS011;36499;46.484;13.832;2024-03-17T11:59:38;1.20;;;1.10;;
12469;SDS011;36499;46.484;13.832;2024-03-17T12:02:09;1.77;;;1.10;;
12469;SDS011;36499;46.484;13.832;2024-03-17T12:04:44;1.50;;;1.40;;
12469;SDS011;36499;46.484;13.832;2024-03-17T12:07:15;2.00;;;1.63;;
12469;SDS011;36499;46.484;13.832;2024-03-17T12:09:42;2.17;;;1.70;;
12469;SDS011;36499;46.484;13.832;2024-03-17T12:14:39;2.67;;;1.60;;
12469;SDS011;36499;46.484;13.832;2024-03-17T12:17:06;1.77;;;1.40;;
12469;SDS011;36499;46.484;13.832;2024-03-17T12:19:33;1.93;;;1.53;;
12469;SDS011;36499;46.484;13.832;2024-03-17T12:22:01;1.50;;;1.30;;
12469;SDS011;36499;46.484;13.832;2024-03-17T12:24:29;1.73;;;1.27;;
12469;SDS011;36499;46.484;13.832;2024-03-17T12:26:57;1.73;;;1.40;;
12469;SDS011;36499;46.484;13.832;2024-03-17T12:34:46;1.27;;;1.17;;
12469;SDS011;36499;46.484;13.832;2024-03-17T12:37:21;1.53;;;1.43;;
12469;SDS011;36499;46.484;13.832;2024-03-17T12:39:48;2.07;;;1.53;;
12469;SDS011;36499;46.484;13.832;2024-03-17T12:42:16;2.30;;;1.43;;
12469;SDS011;36499;46.484;13.832;2024-03-17T12:49:50;1.60;;;1.23;;
12469;SDS011;36499;46.484;13.832;2024-03-17T12:52:19;2.37;;;1.63;;
12469;SDS011;36499;46.484;13.832;2024-03-17T12:54:45;1.40;;;1.30;;
12469;SDS011;36499;46.484;13.832;2024-03-17T12:57:32;1.40;;;1.13;;
12469;SDS011;36499;46.484;13.832;2024-03-17T13:00:22;1.43;;;1.27;;
12469;SDS011;36499;46.484;13.832;2024-03-17T13:02:59;2.27;;;1.77;;
12469;SDS011;36499;46.484;13.832;2024-03-17T13:05:26;2.77;;;1.83;;
12469;SDS011;36499;46.484;13.832;2024-03-17T13:07:53;1.53;;;1.43;;
12469;SDS011;36499;46.484;13.832;2024-03-17T13:10:22;2.63;;;2.37;;
12469;SDS011;36499;46.484;13.832;2024-03-17T13:12:57;2.23;;;1.90;;
12469;SDS011;36499;46.484;13.832;2024-03-17T13:15:28;2.07;;;1.70;;
12469;SDS011;36499;46.484;13.832;2024-03-17T13:17:59;1.77;;;1.50;;
12469;SDS011;36499;46.484;13.832;2024-03-17T13:20:26;1.87;;;1.40;;
12469;SDS011;36499;46.484;13.832;2024-03-17T13:22:54;1.80;;;1.40;;
12469;SDS011;36499;46.484;13.832;2024-03-17T13:25:22;1.80;;;1.43;;
12469;SDS011;36499;46.484;13.832;2024-03-17T13:27:51;4.23;;;1.60;;
12469;SDS011;36499;46.484;13.832;2024-03-17T13:30:19;2.47;;;1.40;;
12469;SDS011;36499;46.484;13.832;2024-03-17T13:32:49;3.57;;;1.50;;
12469;SDS011;36499;46.484;13.832;2024-03-17T13:35:21;2.83;;;1.60;;
12469;SDS011;36499;46.484;13.832;2024-03-17T13:37:49;1.87;;;1.50;;
12469;SDS011;36499;46.484;13.832;2024-03-17T13:40:17;2.27;;;2.03;;
12469;SDS011;36499;46.484;13.832;2024-03-17T13:42:45;2.13;;;1.30;;
12469;SDS011;36499;46.484;13.832;2024-03-17T13:45:12;1.93;;;1.63;;
12469;SDS011;36499;46.484;13.832;2024-03-17T13:47:40;2.60;;;1.60;;
12469;SDS011;36499;46.484;13.832;2024-03-17T13:50:08;3.97;;;1.87;;
12469;SDS011;36499;46.484;13.832;2024-03-17T13:52:38;2.67;;;1.90;;
12469;SDS011;36499;46.484;13.832;2024-03-17T13:55:15;2.20;;;1.70;;
12469;SDS011;36499;46.484;13.832;2024-03-17T13:57:44;1.63;;;1.53;;
12469;SDS011;36499;46.484;13.832;2024-03-17T14:00:12;2.00;;;1.50;;
12469;SDS011;36499;46.484;13.832;2024-03-17T14:02:44;1.77;;;1.50;;
12469;SDS011;36499;46.484;13.832;2024-03-17T14:05:14;3.30;;;2.50;;
12469;SDS011;36499;46.484;13.832;2024-03-17T14:07:42;2.57;;;1.80;;
12469;SDS011;36499;46.484;13.832;2024-03-17T14:10:11;1.70;;;1.43;;
12469;SDS011;36499;46.484;13.832;2024-03-17T14:12:39;2.03;;;1.50;;
12469;SDS011;36499;46.484;13.832;2024-03-17T14:15:07;1.63;;;1.50;;
12469;SDS011;36499;46.484;13.832;2024-03-17T14:17:36;1.93;;;1.37;;
12469;SDS011;36499;46.484;13.832;2024-03-17T14:20:07;1.53;;;1.33;;
12469;SDS011;36499;46.484;13.832;2024-03-17T14:22:35;1.77;;;1.40;;
12469;SDS011;36499;46.484;13.832;2024-03-17T14:25:17;2.73;;;1.53;;
12469;SDS011;36499;46.484;13.832;2024-03-17T14:27:44;3.33;;;1.57;;
12469;SDS011;36499;46.484;13.832;2024-03-17T14:30:15;1.63;;;1.53;;
12469;SDS011;36499;46.484;13.832;2024-03-17T14:32:43;4.60;;;1.60;;
12469;SDS011;36499;46.484;13.832;2024-03-17T14:35:12;2.30;;;1.77;;
12469;SDS011;36499;46.484;13.832;2024-03-17T14:37:41;1.80;;;1.60;;
12469;SDS011;36499;46.484;13.832;2024-03-17T14:40:13;1.57;;;1.43;;
12469;SDS011;36499;46.484;13.832;2024-03-17T14:42:45;2.83;;;2.37;;
12469;SDS011;36499;46.484;13.832;2024-03-17T14:45:11;3.23;;;2.67;;
12469;SDS011;36499;46.484;13.832;2024-03-17T14:47:39;3.47;;;2.70;;
12469;SDS011;36499;46.484;13.832;2024-03-17T14:50:05;4.43;;;2.30;;
12469;SDS011;36499;46.484;13.832;2024-03-17T14:52:33;6.90;;;4.00;;
12469;SDS011;36499;46.484;13.832;2024-03-17T14:55:00;4.33;;;2.73;;
12469;SDS011;36499;46.484;13.832;2024-03-17T14:57:26;3.33;;;2.70;;
12469;SDS011;36499;46.484;13.832;2024-03-17T14:59:53;2.40;;;2.03;;
12469;SDS011;36499;46.484;13.832;2024-03-17T15:02:19;1.90;;;1.77;;
12469;SDS011;36499;46.484;13.832;2024-03-17T15:04:46;3.70;;;2.30;;
12469;SDS011;36499;46.484;13.832;2024-03-17T15:07:13;2.33;;;1.77;;
12469;SDS011;36499;46.484;13.832;2024-03-17T15:09:40;6.80;;;3.67;;
12469;SDS011;36499;46.484;13.832;2024-03-17T15:12:07;4.30;;;2.30;;
12469;SDS011;36499;46.484;13.832;2024-03-17T15:14:34;5.53;;;3.40;;
12469;SDS011;36499;46.484;13.832;2024-03-17T15:17:02;3.83;;;2.80;;
12469;SDS011;36499;46.484;13.832;2024-03-17T15:19:31;2.73;;;2.00;;
12469;SDS011;36499;46.484;13.832;2024-03-17T15:21:58;2.80;;;1.80;;
12469;SDS011;36499;46.484;13.832;2024-03-17T15:24:24;3.17;;;1.93;;
12469;SDS011;36499;46.484;13.832;2024-03-17T15:26:51;7.47;;;1.90;;
12469;SDS011;36499;46.484;13.832;2024-03-17T15:29:18;3.73;;;2.40;;
12469;SDS011;36499;46.484;13.832;2024-03-17T15:31:45;4.27;;;2.13;;
12469;SDS011;36499;46.484;13.832;2024-03-17T15:34:11;2.40;;;1.53;;